Terminal Aerodrome Forecast
Issued by NWS

Home | Current Version | Previous Version | Text Only | Print | Product List | Glossary On
Versions: 1 2 3 4 5 6 7 8 9 10 11 12 13 14 15 16 17 18 19 20 21 22 23 24
000
FTUS45 KREV 300539
TAFCXP
TAF
KCXP 300539Z 3006/0106 VRB03KT P6SM SKC
     FM301700 24012G20KT P6SM BKN180
     FM302000 24017G28KT P6SM SCT120 BKN150
     FM010400 24008KT P6SM SCT150=

USA.gov is the U.S. government's official web portal to all federal, state and local government web resources and services.